sensor_id;sensor_type;location;lat;lon;timestamp;temperature;humidity
29031;DHT22;16122;50.236;11.734;2024-03-02T00:00:19;16.10;71.90
29031;DHT22;16122;50.236;11.734;2024-03-02T00:02:48;16.10;72.10
29031;DHT22;16122;50.236;11.734;2024-03-02T00:05:19;16.10;72.10
29031;DHT22;16122;50.236;11.734;2024-03-02T00:07:55;16.10;72.10
29031;DHT22;16122;50.236;11.734;2024-03-02T00:10:24;16.10;72.40
29031;DHT22;16122;50.236;11.734;2024-03-02T00:12:55;16.10;72.50
29031;DHT22;16122;50.236;11.734;2024-03-02T00:17:56;16.10;72.10
29031;DHT22;16122;50.236;11.734;2024-03-02T00:20:23;16.10;72.00
29031;DHT22;16122;50.236;11.734;2024-03-02T00:22:50;16.10;71.90
29031;DHT22;16122;50.236;11.734;2024-03-02T00:25:16;16.10;72.60
29031;DHT22;16122;50.236;11.734;2024-03-02T00:27:42;16.10;71.70
29031;DHT22;16122;50.236;11.734;2024-03-02T00:33:01;16.10;71.60
29031;DHT22;16122;50.236;11.734;2024-03-02T00:35:27;16.10;71.40
29031;DHT22;16122;50.236;11.734;2024-03-02T00:37:54;16.10;71.30
29031;DHT22;16122;50.236;11.734;2024-03-02T00:40:20;16.10;71.30
29031;DHT22;16122;50.236;11.734;2024-03-02T00:42:46;16.10;71.20
29031;DHT22;16122;50.236;11.734;2024-03-02T00:45:12;16.10;71.10
29031;DHT22;16122;50.236;11.734;2024-03-02T00:47:39;16.10;71.00
29031;DHT22;16122;50.236;11.734;2024-03-02T00:50:05;16.10;70.90
29031;DHT22;16122;50.236;11.734;2024-03-02T00:52:32;16.10;70.80
29031;DHT22;16122;50.236;11.734;2024-03-02T00:54:58;16.10;70.80
29031;DHT22;16122;50.236;11.734;2024-03-02T00:57:25;16.10;70.70
29031;DHT22;16122;50.236;11.734;2024-03-02T00:59:51;16.20;70.80
29031;DHT22;16122;50.236;11.734;2024-03-02T01:02:18;16.10;70.60
29031;DHT22;16122;50.236;11.734;2024-03-02T01:04:45;16.20;70.60
29031;DHT22;16122;50.236;11.734;2024-03-02T01:07:11;16.20;70.40
29031;DHT22;16122;50.236;11.734;2024-03-02T01:09:37;16.20;70.40
29031;DHT22;16122;50.236;11.734;2024-03-02T01:12:03;16.10;70.30
29031;DHT22;16122;50.236;11.734;2024-03-02T01:14:28;16.10;70.30
29031;DHT22;16122;50.236;11.734;2024-03-02T01:16:54;16.20;70.40
29031;DHT22;16122;50.236;11.734;2024-03-02T01:19:20;16.20;70.40
29031;DHT22;16122;50.236;11.734;2024-03-02T01:21:46;16.20;70.30
29031;DHT22;16122;50.236;11.734;2024-03-02T01:24:12;16.20;70.20
29031;DHT22;16122;50.236;11.734;2024-03-02T01:26:38;16.20;70.20
29031;DHT22;16122;50.236;11.734;2024-03-02T01:29:04;16.20;70.20
29031;DHT22;16122;50.236;11.734;2024-03-02T01:31:30;16.20;70.20
29031;DHT22;16122;50.236;11.734;2024-03-02T01:33:56;16.20;70.10
29031;DHT22;16122;50.236;11.734;2024-03-02T01:36:21;16.20;70.10
29031;DHT22;16122;50.236;11.734;2024-03-02T01:38:47;16.20;70.00
29031;DHT22;16122;50.236;11.734;2024-03-02T01:41:13;16.20;70.10
29031;DHT22;16122;50.236;11.734;2024-03-02T01:43:39;16.20;70.10
29031;DHT22;16122;50.236;11.734;2024-03-02T01:46:05;16.20;70.10
29031;DHT22;16122;50.236;11.734;2024-03-02T01:48:30;16.20;70.00
29031;DHT22;16122;50.236;11.734;2024-03-02T01:50:57;16.20;70.00
29031;DHT22;16122;50.236;11.734;2024-03-02T01:53:23;16.20;70.00
29031;DHT22;16122;50.236;11.734;2024-03-02T01:55:49;16.30;70.20
29031;DHT22;16122;50.236;11.734;2024-03-02T01:58:15;16.30;70.10
29031;DHT22;16122;50.236;11.734;2024-03-02T02:00:40;16.30;70.10
29031;DHT22;16122;50.236;11.734;2024-03-02T02:03:06;16.30;70.00
29031;DHT22;16122;50.236;11.734;2024-03-02T02:05:32;16.30;70.00
29031;DHT22;16122;50.236;11.734;2024-03-02T02:07:59;16.30;70.10
29031;DHT22;16122;50.236;11.734;2024-03-02T02:10:24;16.30;70.00
29031;DHT22;16122;50.236;11.734;2024-03-02T02:12:50;16.30;69.90
29031;DHT22;16122;50.236;11.734;2024-03-02T02:17:48;16.30;69.80
29031;DHT22;16122;50.236;11.734;2024-03-02T02:20:14;16.30;69.80
29031;DHT22;16122;50.236;11.734;2024-03-02T02:22:39;16.30;69.80
29031;DHT22;16122;50.236;11.734;2024-03-02T02:25:06;16.30;69.70
29031;DHT22;16122;50.236;11.734;2024-03-02T02:27:31;16.30;69.70
29031;DHT22;16122;50.236;11.734;2024-03-02T02:29:57;16.40;69.70
29031;DHT22;16122;50.236;11.734;2024-03-02T02:32:23;16.30;69.50
29031;DHT22;16122;50.236;11.734;2024-03-02T02:34:52;16.40;69.70
29031;DHT22;16122;50.236;11.734;2024-03-02T02:37:18;16.40;69.70
29031;DHT22;16122;50.236;11.734;2024-03-02T02:39:44;16.40;69.60
29031;DHT22;16122;50.236;11.734;2024-03-02T02:42:12;16.40;69.50
29031;DHT22;16122;50.236;11.734;2024-03-02T02:44:38;16.40;69.50
29031;DHT22;16122;50.236;11.734;2024-03-02T02:47:03;16.40;69.50
29031;DHT22;16122;50.236;11.734;2024-03-02T02:49:31;16.40;69.40
29031;DHT22;16122;50.236;11.734;2024-03-02T02:51:57;16.40;69.50
29031;DHT22;16122;50.236;11.734;2024-03-02T02:54:22;16.40;69.40
29031;DHT22;16122;50.236;11.734;2024-03-02T02:56:48;16.40;69.40
29031;DHT22;16122;50.236;11.734;2024-03-02T02:59:14;16.40;69.40
29031;DHT22;16122;50.236;11.734;2024-03-02T03:01:40;16.40;69.40
29031;DHT22;16122;50.236;11.734;2024-03-02T03:04:05;16.40;69.30
29031;DHT22;16122;50.236;11.734;2024-03-02T03:06:31;16.40;69.30
29031;DHT22;16122;50.236;11.734;2024-03-02T03:08:57;16.40;69.20
29031;DHT22;16122;50.236;11.734;2024-03-02T03:11:23;16.40;69.30
29031;DHT22;16122;50.236;11.734;2024-03-02T03:13:50;16.40;69.30
29031;DHT22;16122;50.236;11.734;2024-03-02T03:16:16;16.40;69.30
29031;DHT22;16122;50.236;11.734;2024-03-02T03:18:42;16.40;69.30
29031;DHT22;16122;50.236;11.734;2024-03-02T03:21:07;16.50;69.30
29031;DHT22;16122;50.236;11.734;2024-03-02T03:23:33;16.40;69.20
29031;DHT22;16122;50.236;11.734;2024-03-02T03:25:59;16.50;69.10
29031;DHT22;16122;50.236;11.734;2024-03-02T03:28:25;16.50;69.20
29031;DHT22;16122;50.236;11.734;2024-03-02T03:30:50;16.50;69.20
29031;DHT22;16122;50.236;11.734;2024-03-02T03:33:16;16.50;69.20
29031;DHT22;16122;50.236;11.734;2024-03-02T03:35:42;16.50;69.20
29031;DHT22;16122;50.236;11.734;2024-03-02T03:38:08;16.50;70.10
29031;DHT22;16122;50.236;11.734;2024-03-02T03:40:33;16.50;69.20
29031;DHT22;16122;50.236;11.734;2024-03-02T03:42:59;16.50;69.20
29031;DHT22;16122;50.236;11.734;2024-03-02T03:45:25;16.50;69.20
29031;DHT22;16122;50.236;11.734;2024-03-02T03:47:53;16.50;69.10
29031;DHT22;16122;50.236;11.734;2024-03-02T03:50:19;16.50;69.00
29031;DHT22;16122;50.236;11.734;2024-03-02T03:52:45;16.50;69.00
29031;DHT22;16122;50.236;11.734;2024-03-02T03:55:11;16.50;68.90
29031;DHT22;16122;50.236;11.734;2024-03-02T03:57:36;16.50;69.00
29031;DHT22;16122;50.236;11.734;2024-03-02T04:00:03;16.50;68.80
29031;DHT22;16122;50.236;11.734;2024-03-02T04:02:38;16.50;68.80
29031;DHT22;16122;50.236;11.734;2024-03-02T04:05:04;16.50;68.90
29031;DHT22;16122;50.236;11.734;2024-03-02T04:07:35;16.50;68.90
29031;DHT22;16122;50.236;11.734;2024-03-02T04:10:07;16.40;68.70
29031;DHT22;16122;50.236;11.734;2024-03-02T04:12:34;16.40;68.80
29031;DHT22;16122;50.236;11.734;2024-03-02T04:15:01;16.40;68.70
29031;DHT22;16122;50.236;11.734;2024-03-02T04:17:27;16.40;68.80
29031;DHT22;16122;50.236;11.734;2024-03-02T04:19:53;16.40;68.70
29031;DHT22;16122;50.236;11.734;2024-03-02T04:22:18;16.40;68.80
29031;DHT22;16122;50.236;11.734;2024-03-02T04:24:44;16.40;68.60
29031;DHT22;16122;50.236;11.734;2024-03-02T04:27:10;16.40;68.80
29031;DHT22;16122;50.236;11.734;2024-03-02T04:29:36;16.40;68.70
29031;DHT22;16122;50.236;11.734;2024-03-02T04:32:01;16.40;68.60
29031;DHT22;16122;50.236;11.734;2024-03-02T04:34:27;16.40;68.50
29031;DHT22;16122;50.236;11.734;2024-03-02T04:36:53;16.40;68.70
29031;DHT22;16122;50.236;11.734;2024-03-02T04:39:19;16.40;68.50
29031;DHT22;16122;50.236;11.734;2024-03-02T04:41:45;16.40;68.60
29031;DHT22;16122;50.236;11.734;2024-03-02T04:44:11;16.40;68.40
29031;DHT22;16122;50.236;11.734;2024-03-02T04:46:37;16.40;68.40
29031;DHT22;16122;50.236;11.734;2024-03-02T04:49:02;16.40;68.40
29031;DHT22;16122;50.236;11.734;2024-03-02T04:51:28;16.40;68.40
29031;DHT22;16122;50.236;11.734;2024-03-02T04:53:54;16.40;68.40
29031;DHT22;16122;50.236;11.734;2024-03-02T04:56:20;16.40;68.30
29031;DHT22;16122;50.236;11.734;2024-03-02T04:58:48;16.40;68.40
29031;DHT22;16122;50.236;11.734;2024-03-02T05:01:14;16.40;68.40
29031;DHT22;16122;50.236;11.734;2024-03-02T05:03:42;16.40;68.40
29031;DHT22;16122;50.236;11.734;2024-03-02T05:06:07;16.40;68.30
29031;DHT22;16122;50.236;11.734;2024-03-02T05:08:34;16.40;68.40
29031;DHT22;16122;50.236;11.734;2024-03-02T05:11:00;16.40;68.40
29031;DHT22;16122;50.236;11.734;2024-03-02T05:13:45;16.30;68.30
29031;DHT22;16122;50.236;11.734;2024-03-02T05:16:12;16.30;68.20
29031;DHT22;16122;50.236;11.734;2024-03-02T05:18:38;16.30;68.30
29031;DHT22;16122;50.236;11.734;2024-03-02T05:21:03;16.30;68.10
29031;DHT22;16122;50.236;11.734;2024-03-02T05:23:29;16.40;68.20
29031;DHT22;16122;50.236;11.734;2024-03-02T05:25:55;16.40;68.10
29031;DHT22;16122;50.236;11.734;2024-03-02T05:28:21;16.40;68.20
29031;DHT22;16122;50.236;11.734;2024-03-02T05:30:46;16.40;68.10
29031;DHT22;16122;50.236;11.734;2024-03-02T05:33:13;16.40;68.10
29031;DHT22;16122;50.236;11.734;2024-03-02T05:35:38;16.40;68.20
29031;DHT22;16122;50.236;11.734;2024-03-02T05:38:05;16.40;68.20
29031;DHT22;16122;50.236;11.734;2024-03-02T05:40:30;16.40;68.10
29031;DHT22;16122;50.236;11.734;2024-03-02T05:42:56;16.30;68.00
29031;DHT22;16122;50.236;11.734;2024-03-02T05:45:22;16.40;68.10
29031;DHT22;16122;50.236;11.734;2024-03-02T05:47:48;16.30;68.00
29031;DHT22;16122;50.236;11.734;2024-03-02T05:50:14;16.30;67.90
29031;DHT22;16122;50.236;11.734;2024-03-02T05:52:39;16.30;67.90
29031;DHT22;16122;50.236;11.734;2024-03-02T05:55:05;16.30;68.00
29031;DHT22;16122;50.236;11.734;2024-03-02T05:57:31;16.30;68.00
29031;DHT22;16122;50.236;11.734;2024-03-02T06:00:11;16.30;67.90
29031;DHT22;16122;50.236;11.734;2024-03-02T06:02:40;16.30;67.90
29031;DHT22;16122;50.236;11.734;2024-03-02T06:05:08;16.30;68.00
29031;DHT22;16122;50.236;11.734;2024-03-02T06:07:34;16.30;67.90
29031;DHT22;16122;50.236;11.734;2024-03-02T06:10:00;16.30;67.80
29031;DHT22;16122;50.236;11.734;2024-03-02T06:12:26;16.30;67.90
29031;DHT22;16122;50.236;11.734;2024-03-02T06:14:51;16.30;67.90
29031;DHT22;16122;50.236;11.734;2024-03-02T06:17:17;16.30;67.90
29031;DHT22;16122;50.236;11.734;2024-03-02T06:19:44;16.30;68.00
29031;DHT22;16122;50.236;11.734;2024-03-02T06:22:10;16.30;68.00
29031;DHT22;16122;50.236;11.734;2024-03-02T06:24:36;16.30;68.10
29031;DHT22;16122;50.236;11.734;2024-03-02T06:27:03;16.40;68.10
29031;DHT22;16122;50.236;11.734;2024-03-02T06:29:32;16.40;68.00
29031;DHT22;16122;50.236;11.734;2024-03-02T06:31:57;16.40;68.10
29031;DHT22;16122;50.236;11.734;2024-03-02T06:34:23;16.40;67.90
29031;DHT22;16122;50.236;11.734;2024-03-02T06:36:49;16.40;68.00
29031;DHT22;16122;50.236;11.734;2024-03-02T06:39:15;16.40;68.00
29031;DHT22;16122;50.236;11.734;2024-03-02T06:41:40;16.40;68.40
29031;DHT22;16122;50.236;11.734;2024-03-02T06:44:08;16.40;68.60
29031;DHT22;16122;50.236;11.734;2024-03-02T06:46:33;16.40;68.90
29031;DHT22;16122;50.236;11.734;2024-03-02T06:48:59;16.40;69.00
29031;DHT22;16122;50.236;11.734;2024-03-02T06:51:28;16.50;69.30
29031;DHT22;16122;50.236;11.734;2024-03-02T06:53:53;16.50;69.30
29031;DHT22;16122;50.236;11.734;2024-03-02T06:56:19;16.50;69.40
29031;DHT22;16122;50.236;11.734;2024-03-02T06:58:45;16.50;69.60
29031;DHT22;16122;50.236;11.734;2024-03-02T07:01:11;16.50;69.60
29031;DHT22;16122;50.236;11.734;2024-03-02T07:03:36;16.50;69.80
29031;DHT22;16122;50.236;11.734;2024-03-02T07:06:02;16.50;70.10
29031;DHT22;16122;50.236;11.734;2024-03-02T07:08:28;16.50;70.10
29031;DHT22;16122;50.236;11.734;2024-03-02T07:10:54;16.50;70.20
29031;DHT22;16122;50.236;11.734;2024-03-02T07:13:20;16.50;70.20
29031;DHT22;16122;50.236;11.734;2024-03-02T07:15:46;16.50;70.50
29031;DHT22;16122;50.236;11.734;2024-03-02T07:18:31;16.50;70.80
29031;DHT22;16122;50.236;11.734;2024-03-02T07:20:57;16.50;71.00
29031;DHT22;16122;50.236;11.734;2024-03-02T07:23:29;16.50;71.10
29031;DHT22;16122;50.236;11.734;2024-03-02T07:25:56;16.50;71.10
29031;DHT22;16122;50.236;11.734;2024-03-02T07:28:27;16.50;71.20
29031;DHT22;16122;50.236;11.734;2024-03-02T07:31:00;16.50;71.40
29031;DHT22;16122;50.236;11.734;2024-03-02T07:33:26;16.60;71.50
29031;DHT22;16122;50.236;11.734;2024-03-02T07:35:54;16.50;71.40
29031;DHT22;16122;50.236;11.734;2024-03-02T07:38:21;16.50;71.50
29031;DHT22;16122;50.236;11.734;2024-03-02T07:40:48;16.50;71.40
29031;DHT22;16122;50.236;11.734;2024-03-02T07:43:18;16.50;71.40
29031;DHT22;16122;50.236;11.734;2024-03-02T07:45:45;16.60;71.50
29031;DHT22;16122;50.236;11.734;2024-03-02T07:48:11;16.60;71.50
29031;DHT22;16122;50.236;11.734;2024-03-02T07:50:36;16.50;71.40
29031;DHT22;16122;50.236;11.734;2024-03-02T07:53:05;16.50;71.40
29031;DHT22;16122;50.236;11.734;2024-03-02T07:55:31;16.50;71.20
29031;DHT22;16122;50.236;11.734;2024-03-02T07:57:57;16.50;71.10
29031;DHT22;16122;50.236;11.734;2024-03-02T08:00:23;16.50;71.10
29031;DHT22;16122;50.236;11.734;2024-03-02T08:02:50;16.50;71.20
29031;DHT22;16122;50.236;11.734;2024-03-02T08:05:19;16.50;71.40
29031;DHT22;16122;50.236;11.734;2024-03-02T08:07:45;16.50;71.60
29031;DHT22;16122;50.236;11.734;2024-03-02T08:10:11;16.50;71.70
29031;DHT22;16122;50.236;11.734;2024-03-02T08:12:37;16.50;71.80
29031;DHT22;16122;50.236;11.734;2024-03-02T08:15:05;16.50;71.80
29031;DHT22;16122;50.236;11.734;2024-03-02T08:17:31;16.50;72.00
29031;DHT22;16122;50.236;11.734;2024-03-02T08:19:57;16.50;72.10
29031;DHT22;16122;50.236;11.734;2024-03-02T08:22:23;16.50;72.00
29031;DHT22;16122;50.236;11.734;2024-03-02T08:24:51;16.50;71.80
29031;DHT22;16122;50.236;11.734;2024-03-02T08:27:17;16.50;71.70
29031;DHT22;16122;50.236;11.734;2024-03-02T08:29:43;16.50;71.50
29031;DHT22;16122;50.236;11.734;2024-03-02T08:32:09;16.50;71.60
29031;DHT22;16122;50.236;11.734;2024-03-02T08:34:34;16.50;71.40
29031;DHT22;16122;50.236;11.734;2024-03-02T08:37:02;16.50;71.40
29031;DHT22;16122;50.236;11.734;2024-03-02T08:39:28;16.50;71.30
29031;DHT22;16122;50.236;11.734;2024-03-02T08:41:54;16.50;71.30
29031;DHT22;16122;50.236;11.734;2024-03-02T08:44:20;16.50;71.30
29031;DHT22;16122;50.236;11.734;2024-03-02T08:46:47;16.50;71.10
29031;DHT22;16122;50.236;11.734;2024-03-02T08:49:13;16.50;71.20
29031;DHT22;16122;50.236;11.734;2024-03-02T08:51:39;16.50;71.10
29031;DHT22;16122;50.236;11.734;2024-03-02T08:54:05;16.50;70.90
29031;DHT22;16122;50.236;11.734;2024-03-02T08:56:31;16.50;70.80
29031;DHT22;16122;50.236;11.734;2024-03-02T08:58:57;16.50;70.80
29031;DHT22;16122;50.236;11.734;2024-03-02T09:01:23;16.50;70.80
29031;DHT22;16122;50.236;11.734;2024-03-02T09:03:49;16.50;70.70
29031;DHT22;16122;50.236;11.734;2024-03-02T09:06:15;16.50;70.50
29031;DHT22;16122;50.236;11.734;2024-03-02T09:08:45;16.50;70.50
29031;DHT22;16122;50.236;11.734;2024-03-02T09:11:11;16.50;70.50
29031;DHT22;16122;50.236;11.734;2024-03-02T09:13:38;16.50;70.20
29031;DHT22;16122;50.236;11.734;2024-03-02T09:16:04;16.50;70.00
29031;DHT22;16122;50.236;11.734;2024-03-02T09:18:31;16.50;69.80
29031;DHT22;16122;50.236;11.734;2024-03-02T09:20:56;16.50;69.70
29031;DHT22;16122;50.236;11.734;2024-03-02T09:23:22;16.50;69.70
29031;DHT22;16122;50.236;11.734;2024-03-02T09:25:48;16.50;70.10
29031;DHT22;16122;50.236;11.734;2024-03-02T09:28:15;16.50;70.70
29031;DHT22;16122;50.236;11.734;2024-03-02T09:30:41;16.50;70.90
29031;DHT22;16122;50.236;11.734;2024-03-02T09:33:07;16.60;71.00
29031;DHT22;16122;50.236;11.734;2024-03-02T09:35:33;16.50;70.90
29031;DHT22;16122;50.236;11.734;2024-03-02T09:37:58;16.50;71.00
29031;DHT22;16122;50.236;11.734;2024-03-02T09:40:24;16.50;71.10
29031;DHT22;16122;50.236;11.734;2024-03-02T09:42:51;16.50;71.20
29031;DHT22;16122;50.236;11.734;2024-03-02T09:45:25;16.30;63.80
29031;DHT22;16122;50.236;11.734;2024-03-02T09:47:51;16.20;68.90
29031;DHT22;16122;50.236;11.734;2024-03-02T09:50:16;16.30;69.50
29031;DHT22;16122;50.236;11.734;2024-03-02T09:52:43;16.30;69.60
29031;DHT22;16122;50.236;11.734;2024-03-02T09:55:09;16.30;69.70
29031;DHT22;16122;50.236;11.734;2024-03-02T09:57:37;16.40;69.90
29031;DHT22;16122;50.236;11.734;2024-03-02T10:00:03;16.40;70.00
29031;DHT22;16122;50.236;11.734;2024-03-02T10:02:30;16.40;70.20
29031;DHT22;16122;50.236;11.734;2024-03-02T10:04:56;16.40;70.20
29031;DHT22;16122;50.236;11.734;2024-03-02T10:07:22;16.40;70.20
29031;DHT22;16122;50.236;11.734;2024-03-02T10:09:48;16.40;70.30
29031;DHT22;16122;50.236;11.734;2024-03-02T10:12:16;16.50;70.50
29031;DHT22;16122;50.236;11.734;2024-03-02T10:14:42;16.50;70.40
29031;DHT22;16122;50.236;11.734;2024-03-02T10:17:11;16.50;70.50
29031;DHT22;16122;50.236;11.734;2024-03-02T10:19:38;16.50;70.50
29031;DHT22;16122;50.236;11.734;2024-03-02T10:22:08;16.50;70.70
29031;DHT22;16122;50.236;11.734;2024-03-02T10:24:44;16.50;70.60
29031;DHT22;16122;50.236;11.734;2024-03-02T10:27:22;16.50;70.70
29031;DHT22;16122;50.236;11.734;2024-03-02T10:29:49;16.50;70.70
29031;DHT22;16122;50.236;11.734;2024-03-02T10:32:16;16.50;70.70
29031;DHT22;16122;50.236;11.734;2024-03-02T10:34:46;16.50;70.50
29031;DHT22;16122;50.236;11.734;2024-03-02T10:37:13;16.60;70.30
29031;DHT22;16122;50.236;11.734;2024-03-02T10:39:39;16.60;70.80
29031;DHT22;16122;50.236;11.734;2024-03-02T10:42:06;16.60;69.80
29031;DHT22;16122;50.236;11.734;2024-03-02T10:44:32;16.60;69.90
29031;DHT22;16122;50.236;11.734;2024-03-02T10:47:04;16.60;69.80
29031;DHT22;16122;50.236;11.734;2024-03-02T10:49:30;16.70;69.80
29031;DHT22;16122;50.236;11.734;2024-03-02T10:52:00;16.70;70.00
29031;DHT22;16122;50.236;11.734;2024-03-02T10:54:27;16.70;70.30
29031;DHT22;16122;50.236;11.734;2024-03-02T10:56:57;16.70;70.30
29031;DHT22;16122;50.236;11.734;2024-03-02T10:59:34;16.70;70.50
29031;DHT22;16122;50.236;11.734;2024-03-02T11:02:03;16.70;70.50
29031;DHT22;16122;50.236;11.734;2024-03-02T11:04:30;16.80;70.70
29031;DHT22;16122;50.236;11.734;2024-03-02T11:07:00;16.80;70.90
29031;DHT22;16122;50.236;11.734;2024-03-02T11:09:28;16.80;71.00
29031;DHT22;16122;50.236;11.734;2024-03-02T11:14:31;16.80;71.20
29031;DHT22;16122;50.236;11.734;2024-03-02T11:17:02;16.80;71.30
29031;DHT22;16122;50.236;11.734;2024-03-02T11:19:29;16.80;71.50
29031;DHT22;16122;50.236;11.734;2024-03-02T11:21:56;16.90;71.50
29031;DHT22;16122;50.236;11.734;2024-03-02T11:27:02;16.80;71.40
29031;DHT22;16122;50.236;11.734;2024-03-02T11:32:22;16.90;71.50
29031;DHT22;16122;50.236;11.734;2024-03-02T11:34:51;16.90;71.50
29031;DHT22;16122;50.236;11.734;2024-03-02T11:37:18;16.90;71.50
29031;DHT22;16122;50.236;11.734;2024-03-02T11:39:45;16.90;71.50
29031;DHT22;16122;50.236;11.734;2024-03-02T11:42:11;16.90;71.60
29031;DHT22;16122;50.236;11.734;2024-03-02T11:44:44;16.90;71.60
29031;DHT22;16122;50.236;11.734;2024-03-02T11:47:13;16.90;71.60
29031;DHT22;16122;50.236;11.734;2024-03-02T11:50:00;16.90;71.70
29031;DHT22;16122;50.236;11.734;2024-03-02T11:52:27;16.90;71.70
29031;DHT22;16122;50.236;11.734;2024-03-02T11:54:53;16.90;71.80
29031;DHT22;16122;50.236;11.734;2024-03-02T11:57:21;17.00;71.80
29031;DHT22;16122;50.236;11.734;2024-03-02T11:59:51;17.00;71.80
29031;DHT22;16122;50.236;11.734;2024-03-02T12:02:19;17.00;72.60
29031;DHT22;16122;50.236;11.734;2024-03-02T12:04:46;16.90;71.80
29031;DHT22;16122;50.236;11.734;2024-03-02T12:07:21;17.00;72.70
29031;DHT22;16122;50.236;11.734;2024-03-02T12:10:09;17.00;71.90
29031;DHT22;16122;50.236;11.734;2024-03-02T12:12:34;17.00;72.00
29031;DHT22;16122;50.236;11.734;2024-03-02T12:15:00;17.00;72.00
29031;DHT22;16122;50.236;11.734;2024-03-02T12:17:26;17.00;72.00
29031;DHT22;16122;50.236;11.734;2024-03-02T12:19:52;17.00;72.00
29031;DHT22;16122;50.236;11.734;2024-03-02T12:22:18;17.00;72.10
29031;DHT22;16122;50.236;11.734;2024-03-02T12:24:45;17.00;72.00
29031;DHT22;16122;50.236;11.734;2024-03-02T12:27:15;17.00;71.90
29031;DHT22;16122;50.236;11.734;2024-03-02T12:29:41;17.00;71.90
29031;DHT22;16122;50.236;11.734;2024-03-02T12:32:07;17.00;71.90
29031;DHT22;16122;50.236;11.734;2024-03-02T12:34:33;17.00;71.90
29031;DHT22;16122;50.236;11.734;2024-03-02T12:36:59;17.00;71.90
29031;DHT22;16122;50.236;11.734;2024-03-02T12:39:25;17.00;71.90
29031;DHT22;16122;50.236;11.734;2024-03-02T12:41:51;17.00;71.90
29031;DHT22;16122;50.236;11.734;2024-03-02T12:44:19;17.00;71.90
29031;DHT22;16122;50.236;11.734;2024-03-02T12:46:46;17.00;71.90
29031;DHT22;16122;50.236;11.734;2024-03-02T12:49:14;17.00;71.80
29031;DHT22;16122;50.236;11.734;2024-03-02T12:51:42;17.00;71.80
29031;DHT22;16122;50.236;11.734;2024-03-02T12:54:09;17.00;71.80
29031;DHT22;16122;50.236;11.734;2024-03-02T12:56:38;17.00;71.80
29031;DHT22;16122;50.236;11.734;2024-03-02T12:59:06;17.00;71.90
29031;DHT22;16122;50.236;11.734;2024-03-02T13:01:31;17.00;71.80
29031;DHT22;16122;50.236;11.734;2024-03-02T13:03:58;17.00;71.80
29031;DHT22;16122;50.236;11.734;2024-03-02T13:06:25;17.00;71.70
29031;DHT22;16122;50.236;11.734;2024-03-02T13:08:54;17.00;71.80
29031;DHT22;16122;50.236;11.734;2024-03-02T13:11:22;17.00;71.80
29031;DHT22;16122;50.236;11.734;2024-03-02T13:13:49;17.00;71.70
29031;DHT22;16122;50.236;11.734;2024-03-02T13:16:16;17.00;71.70
29031;DHT22;16122;50.236;11.734;2024-03-02T13:18:42;17.00;71.70
29031;DHT22;16122;50.236;11.734;2024-03-02T13:21:09;17.00;71.80
29031;DHT22;16122;50.236;11.734;2024-03-02T13:23:35;17.00;71.70
29031;DHT22;16122;50.236;11.734;2024-03-02T13:26:01;16.90;71.60
29031;DHT22;16122;50.236;11.734;2024-03-02T13:28:29;17.00;71.50
29031;DHT22;16122;50.236;11.734;2024-03-02T13:30:55;17.00;71.50
29031;DHT22;16122;50.236;11.734;2024-03-02T13:33:21;17.00;71.40
29031;DHT22;16122;50.236;11.734;2024-03-02T13:35:50;17.00;71.40
29031;DHT22;16122;50.236;11.734;2024-03-02T13:38:19;16.90;71.20
29031;DHT22;16122;50.236;11.734;2024-03-02T13:40:46;17.00;71.00
29031;DHT22;16122;50.236;11.734;2024-03-02T13:43:12;17.00;70.90
29031;DHT22;16122;50.236;11.734;2024-03-02T13:45:38;17.00;70.90
29031;DHT22;16122;50.236;11.734;2024-03-02T13:48:05;17.00;70.90
29031;DHT22;16122;50.236;11.734;2024-03-02T13:50:31;17.00;71.10
29031;DHT22;16122;50.236;11.734;2024-03-02T13:52:56;17.00;71.80
29031;DHT22;16122;50.236;11.734;2024-03-02T13:55:22;17.00;72.80
29031;DHT22;16122;50.236;11.734;2024-03-02T13:57:48;17.00;73.40
29031;DHT22;16122;50.236;11.734;2024-03-02T14:00:17;17.00;73.70
29031;DHT22;16122;50.236;11.734;2024-03-02T14:02:45;17.00;73.90
29031;DHT22;16122;50.236;11.734;2024-03-02T14:05:12;17.00;74.00
29031;DHT22;16122;50.236;11.734;2024-03-02T14:07:39;17.00;73.10
29031;DHT22;16122;50.236;11.734;2024-03-02T14:10:06;17.10;73.60
29031;DHT22;16122;50.236;11.734;2024-03-02T14:12:32;17.10;73.70
29031;DHT22;16122;50.236;11.734;2024-03-02T14:14:57;17.10;73.70
29031;DHT22;16122;50.236;11.734;2024-03-02T14:17:25;17.10;73.80
29031;DHT22;16122;50.236;11.734;2024-03-02T14:19:50;17.10;73.80
29031;DHT22;16122;50.236;11.734;2024-03-02T14:22:19;17.10;74.00
29031;DHT22;16122;50.236;11.734;2024-03-02T14:24:46;17.10;73.80
29031;DHT22;16122;50.236;11.734;2024-03-02T14:27:12;17.10;73.80
29031;DHT22;16122;50.236;11.734;2024-03-02T14:29:40;17.10;73.80
29031;DHT22;16122;50.236;11.734;2024-03-02T14:32:06;17.10;74.00
29031;DHT22;16122;50.236;11.734;2024-03-02T14:34:33;17.10;74.10
29031;DHT22;16122;50.236;11.734;2024-03-02T14:36:59;17.10;74.00
29031;DHT22;16122;50.236;11.734;2024-03-02T14:39:26;17.10;74.00
29031;DHT22;16122;50.236;11.734;2024-03-02T14:41:52;17.10;74.00
29031;DHT22;16122;50.236;11.734;2024-03-02T14:44:17;17.10;73.80
29031;DHT22;16122;50.236;11.734;2024-03-02T14:46:46;17.10;73.90
29031;DHT22;16122;50.236;11.734;2024-03-02T14:49:12;17.20;74.00
29031;DHT22;16122;50.236;11.734;2024-03-02T14:51:38;17.10;74.00
29031;DHT22;16122;50.236;11.734;2024-03-02T14:54:04;17.10;73.70
29031;DHT22;16122;50.236;11.734;2024-03-02T14:56:30;17.10;73.00
29031;DHT22;16122;50.236;11.734;2024-03-02T14:58:56;17.10;72.90
29031;DHT22;16122;50.236;11.734;2024-03-02T15:01:22;17.10;72.90
29031;DHT22;16122;50.236;11.734;2024-03-02T15:03:51;17.10;73.10
29031;DHT22;16122;50.236;11.734;2024-03-02T15:06:17;17.10;73.40
29031;DHT22;16122;50.236;11.734;2024-03-02T15:08:43;17.10;73.60
29031;DHT22;16122;50.236;11.734;2024-03-02T15:11:12;17.20;73.90
29031;DHT22;16122;50.236;11.734;2024-03-02T15:13:38;17.20;74.10
29031;DHT22;16122;50.236;11.734;2024-03-02T15:16:04;17.20;74.30
29031;DHT22;16122;50.236;11.734;2024-03-02T15:18:30;17.20;74.10
29031;DHT22;16122;50.236;11.734;2024-03-02T15:20:56;17.20;74.20
29031;DHT22;16122;50.236;11.734;2024-03-02T15:23:22;17.20;74.20
29031;DHT22;16122;50.236;11.734;2024-03-02T15:25:48;17.20;74.40
29031;DHT22;16122;50.236;11.734;2024-03-02T15:28:14;17.20;74.40